Time;durP1;ratioP1;P1;durP2;ratioP2;P2;SDS_P1;SDS_P2;PMS_P1;PMS_P2;Temp;Humidity;BMP_temperature;BMP_pressure;BME280_temperature;BME280_humidity;BME280_pressure;Samples;Min_cycle;Max_cycle;Signal;HPM_P1;HPM_P2
2021/01/17 00:00:18;;;;;;;21.83;13.17;;;-1.70;99.90;;;;;;6160752;23;20654;-85
2021/01/17 00:02:45;;;;;;;22.70;13.60;;;-1.60;99.90;;;;;;6169473;23;20611;-86
2021/01/17 00:05:13;;;;;;;21.60;13.13;;;-1.60;99.90;;;;;;6167200;23;20174;-85
2021/01/17 00:07:39;;;;;;;18.45;12.05;;;-1.60;99.90;;;;;;6169808;23;20273;-86
2021/01/17 00:10:10;;;;;;;22.20;14.00;;;-1.60;99.90;;;;;;6169413;23;20696;-86
2021/01/17 00:12:36;;;;;;;22.10;13.63;;;-1.60;99.90;;;;;;6169673;23;20199;-86
2021/01/17 00:15:05;;;;;;;22.27;12.93;;;-1.50;99.90;;;;;;6168257;23;20190;-85
2021/01/17 00:17:34;;;;;;;20.35;12.45;;;-1.60;99.90;;;;;;6169968;23;20155;-85
2021/01/17 00:20:00;;;;;;;21.55;14.05;;;-1.60;99.90;;;;;;6171771;23;20163;-85
2021/01/17 00:22:25;;;;;;;22.60;13.17;;;-1.60;99.90;;;;;;6173941;23;20221;-85
2021/01/17 00:24:51;;;;;;;20.03;13.00;;;-1.50;99.90;;;;;;6173100;23;20952;-86
2021/01/17 00:27:17;;;;;;;23.77;13.30;;;-1.60;99.90;;;;;;6170813;23;20634;-86
2021/01/17 00:29:42;;;;;;;19.17;13.10;;;-1.60;99.90;;;;;;6172256;23;20167;-86
2021/01/17 00:32:12;;;;;;;19.87;13.20;;;-1.60;99.90;;;;;;6171736;23;20414;-86
2021/01/17 00:34:38;;;;;;;18.17;12.75;;;-1.60;99.90;;;;;;6173707;23;20174;-86
2021/01/17 00:37:04;;;;;;;22.35;13.00;;;-1.40;99.90;;;;;;6172811;23;21004;-87
2021/01/17 00:39:30;;;;;;;20.87;13.00;;;-1.40;99.90;;;;;;6172944;23;20164;-86
2021/01/17 00:41:56;;;;;;;22.20;14.77;;;-1.40;99.90;;;;;;6172161;23;20662;-87
2021/01/17 00:44:21;;;;;;;24.47;15.47;;;-1.50;99.90;;;;;;6171587;23;20495;-85
2021/01/17 00:46:47;;;;;;;22.33;14.43;;;-1.50;99.90;;;;;;6171293;23;20802;-86
2021/01/17 00:49:12;;;;;;;21.37;13.00;;;-1.60;99.90;;;;;;6172619;23;20488;-86
2021/01/17 00:51:44;;;;;;;21.57;13.70;;;-1.60;99.90;;;;;;6170090;23;20166;-85
2021/01/17 00:54:10;;;;;;;20.20;13.20;;;-1.60;99.90;;;;;;6170947;23;20540;-86
2021/01/17 00:56:37;;;;;;;22.57;14.53;;;-1.60;99.90;;;;;;6170022;23;20530;-86
2021/01/17 00:59:04;;;;;;;24.65;13.95;;;-1.50;99.90;;;;;;6163276;23;20740;-86
2021/01/17 01:01:56;;;;;;;22.50;13.70;;;-1.50;99.90;;;;;;6172432;23;20152;-85
2021/01/17 01:04:22;;;;;;;18.87;11.97;;;-1.40;99.90;;;;;;6170724;23;20250;-86
2021/01/17 01:06:51;;;;;;;21.00;13.67;;;-1.40;99.90;;;;;;6170970;23;21181;-85
2021/01/17 01:09:18;;;;;;;19.87;12.63;;;-1.30;99.90;;;;;;6172271;23;20556;-85
2021/01/17 01:11:44;;;;;;;19.87;12.77;;;-1.30;99.90;;;;;;6172554;23;20457;-85
2021/01/17 01:14:10;;;;;;;22.57;13.47;;;-1.30;99.90;;;;;;6170751;23;20783;-85
2021/01/17 01:16:35;;;;;;;17.63;12.40;;;-1.30;99.90;;;;;;6172543;23;20392;-86
2021/01/17 01:19:02;;;;;;;23.10;13.20;;;-1.40;99.90;;;;;;6198495;23;20562;-85
2021/01/17 01:21:32;;;;;;;22.63;13.50;;;-1.40;99.90;;;;;;6173220;23;20598;-85
2021/01/17 01:23:59;;;;;;;21.63;13.20;;;-1.30;99.90;;;;;;6172501;23;21071;-85
2021/01/17 01:26:25;;;;;;;23.40;14.25;;;-1.40;99.90;;;;;;6171012;23;20266;-85
2021/01/17 01:28:53;;;;;;;23.20;14.25;;;-1.40;99.90;;;;;;6161458;23;20550;-85
2021/01/17 01:31:20;;;;;;;20.67;12.88;;;-1.40;99.90;;;;;;6168069;23;20164;-85
2021/01/17 01:33:46;;;;;;;21.40;13.88;;;-1.30;99.90;;;;;;6168604;23;20532;-85
2021/01/17 01:36:23;;;;;;;22.00;14.77;;;-1.30;99.90;;;;;;6171738;23;20659;-85
2021/01/17 01:38:49;;;;;;;23.67;14.50;;;-1.30;99.90;;;;;;6171598;23;20193;-85
2021/01/17 01:41:16;;;;;;;22.55;14.45;;;-1.40;99.90;;;;;;6164632;23;20168;-85
2021/01/17 01:43:42;;;;;;;22.58;15.50;;;-1.50;99.90;;;;;;6167527;23;20738;-85
2021/01/17 01:46:13;;;;;;;23.33;14.95;;;-1.40;99.90;;;;;;6164867;23;20168;-86
2021/01/17 01:48:38;;;;;;;26.08;16.15;;;-1.50;99.90;;;;;;6167659;23;20515;-85
2021/01/17 01:51:04;;;;;;;24.30;15.60;;;-1.50;99.90;;;;;;6168975;23;20194;-86
2021/01/17 01:53:30;;;;;;;24.77;14.70;;;-1.50;99.90;;;;;;6167731;23;20171;-85
2021/01/17 01:55:57;;;;;;;26.80;15.87;;;-1.50;99.90;;;;;;6168004;23;20166;-85
2021/01/17 01:58:23;;;;;;;20.48;12.57;;;-1.40;99.90;;;;;;6169221;23;20557;-86
2021/01/17 02:00:54;;;;;;;20.60;13.60;;;-1.40;99.90;;;;;;6168635;23;20167;-86
2021/01/17 02:03:20;;;;;;;21.20;13.77;;;-1.40;99.90;;;;;;6167536;23;20558;-85
2021/01/17 02:05:46;;;;;;;24.70;16.23;;;-1.50;99.90;;;;;;6165437;23;20202;-86
2021/01/17 02:08:30;;;;;;;21.93;14.00;;;-1.50;99.90;;;;;;6167710;23;20203;-86
2021/01/17 02:11:07;;;;;;;22.42;13.88;;;-1.60;99.90;;;;;;6164462;23;20509;-86
2021/01/17 02:13:40;;;;;;;25.05;14.45;;;-1.50;99.90;;;;;;6169636;23;20243;-86
2021/01/17 02:16:07;;;;;;;22.58;14.88;;;-1.40;99.90;;;;;;6166417;23;20444;-86
2021/01/17 02:18:40;;;;;;;22.52;13.32;;;-1.50;99.90;;;;;;6168242;23;20164;-86
2021/01/17 02:21:08;;;;;;;22.08;13.82;;;-1.50;99.90;;;;;;6169039;23;20385;-86
2021/01/17 02:23:48;;;;;;;25.02;13.15;;;-1.40;99.90;;;;;;6169162;23;20171;-87
2021/01/17 02:26:14;;;;;;;22.83;13.43;;;-1.50;99.90;;;;;;6168454;23;20170;-86
2021/01/17 02:28:43;;;;;;;20.77;13.63;;;-1.50;99.90;;;;;;6168916;23;20207;-86
2021/01/17 02:31:09;;;;;;;23.52;14.20;;;-1.40;99.90;;;;;;6167704;23;20944;-86
2021/01/17 02:33:37;;;;;;;24.87;15.97;;;-1.40;99.90;;;;;;6169987;23;20168;-86
2021/01/17 02:36:30;;;;;;;21.25;13.45;;;-1.50;99.90;;;;;;6169583;23;20429;-86
2021/01/17 02:39:33;;;;;;;21.33;14.35;;;-1.40;99.90;;;;;;6169399;23;20167;-85
2021/01/17 02:42:00;;;;;;;24.77;14.10;;;-1.40;99.90;;;;;;6158430;23;20175;-86
2021/01/17 02:44:35;;;;;;;25.20;15.60;;;-1.40;99.90;;;;;;6169806;23;20247;-86
2021/01/17 02:47:01;;;;;;;20.92;13.15;;;-1.30;99.90;;;;;;6169926;23;20190;-86
2021/01/17 02:49:28;;;;;;;24.83;14.30;;;-1.30;99.90;;;;;;6171975;23;21251;-86
2021/01/17 02:51:54;;;;;;;25.13;14.67;;;-1.30;99.90;;;;;;6170202;23;20168;-85
2021/01/17 02:54:25;;;;;;;21.10;14.03;;;-1.30;99.90;;;;;;6169984;23;20410;-86
2021/01/17 02:57:09;;;;;;;23.33;14.93;;;-1.30;99.90;;;;;;6169625;23;20485;-85
2021/01/17 03:00:07;;;;;;;25.45;14.68;;;-1.30;99.90;;;;;;6167614;23;20456;-85
2021/01/17 03:02:35;;;;;;;23.17;14.20;;;-1.30;99.90;;;;;;6163742;23;20501;-85
2021/01/17 03:05:06;;;;;;;23.80;13.70;;;-1.30;99.90;;;;;;6170209;23;20167;-85
2021/01/17 03:07:35;;;;;;;24.30;14.37;;;-1.30;99.90;;;;;;6168702;23;20458;-85
2021/01/17 03:10:03;;;;;;;22.27;13.50;;;-1.20;99.90;;;;;;6194979;23;20872;-85
2021/01/17 03:12:31;;;;;;;22.30;13.80;;;-1.20;99.90;;;;;;6169155;23;20948;-85
2021/01/17 03:14:59;;;;;;;23.10;14.73;;;-1.20;99.90;;;;;;6165489;23;20685;-85
2021/01/17 03:17:25;;;;;;;22.80;14.27;;;-1.20;99.90;;;;;;6171065;23;20456;-85
2021/01/17 03:19:50;;;;;;;25.80;14.33;;;-1.30;99.90;;;;;;6168417;23;20169;-85
2021/01/17 03:22:16;;;;;;;22.70;15.07;;;-1.30;99.90;;;;;;6168456;23;20179;-87
2021/01/17 03:24:42;;;;;;;24.07;13.97;;;-1.30;99.90;;;;;;6168579;23;20158;-86
2021/01/17 03:27:07;;;;;;;25.53;14.83;;;-1.30;99.90;;;;;;6196279;23;20198;-85
2021/01/17 03:29:33;;;;;;;23.10;13.43;;;-1.30;99.90;;;;;;6194463;23;20164;-85
2021/01/17 03:31:58;;;;;;;19.73;13.83;;;-1.30;99.90;;;;;;6166407;23;20186;-86
2021/01/17 03:34:24;;;;;;;21.43;13.53;;;-1.20;99.90;;;;;;6168610;23;20164;-86
2021/01/17 03:36:50;;;;;;;19.93;12.90;;;-1.20;99.90;;;;;;6169022;23;20183;-87
2021/01/17 03:39:15;;;;;;;23.90;14.03;;;-1.20;99.90;;;;;;6169993;23;20250;-86
2021/01/17 03:41:41;;;;;;;27.37;15.20;;;-1.20;99.90;;;;;;6169055;23;20267;-86
2021/01/17 03:44:07;;;;;;;27.83;14.50;;;-1.20;99.90;;;;;;6169073;23;20175;-86
2021/01/17 03:46:32;;;;;;;26.77;14.53;;;-1.30;99.90;;;;;;6169379;23;20167;-86
2021/01/17 03:48:59;;;;;;;23.80;15.17;;;-1.30;99.90;;;;;;6169399;23;20950;-86
2021/01/17 03:51:24;;;;;;;20.90;12.80;;;-1.30;99.90;;;;;;6168986;23;20164;-86
2021/01/17 03:53:50;;;;;;;22.53;15.33;;;-1.20;99.90;;;;;;6168640;23;20411;-85
2021/01/17 03:56:17;;;;;;;21.10;13.50;;;-1.30;99.90;;;;;;6169272;23;20464;-86
2021/01/17 03:58:43;;;;;;;23.90;14.85;;;-1.30;99.90;;;;;;6172743;23;20190;-86
2021/01/17 04:01:08;;;;;;;26.10;15.30;;;-1.30;99.90;;;;;;6170765;23;20418;-86
2021/01/17 04:03:34;;;;;;;24.40;15.60;;;-1.30;99.90;;;;;;6171193;23;20765;-86
2021/01/17 04:06:00;;;;;;;24.33;15.20;;;-1.20;99.90;;;;;;6168874;23;20167;-85
2021/01/17 04:08:25;;;;;;;24.20;15.00;;;-1.30;99.90;;;;;;6170439;23;20194;-86
2021/01/17 04:10:51;;;;;;;25.30;14.80;;;-1.30;99.90;;;;;;6171482;23;20613;-86
2021/01/17 04:13:17;;;;;;;28.50;16.93;;;-1.40;99.90;;;;;;6167811;23;20281;-86
2021/01/17 04:15:42;;;;;;;25.57;15.20;;;-1.40;99.90;;;;;;6170528;23;20163;-86
2021/01/17 04:18:09;;;;;;;26.93;16.80;;;-1.40;99.90;;;;;;6169270;23;20176;-86
2021/01/17 04:20:35;;;;;;;25.17;16.02;;;-1.40;99.90;;;;;;6171213;23;20187;-86
2021/01/17 04:23:03;;;;;;;26.15;18.08;;;-1.40;99.90;;;;;;6170003;23;20174;-86
2021/01/17 04:25:29;;;;;;;26.00;17.63;;;-1.40;99.90;;;;;;6169726;23;20506;-86
2021/01/17 04:27:55;;;;;;;24.45;15.25;;;-1.40;99.90;;;;;;6169066;23;20204;-86
2021/01/17 04:30:22;;;;;;;27.10;17.20;;;-1.30;99.90;;;;;;6170696;23;20174;-86
2021/01/17 04:32:48;;;;;;;28.60;16.77;;;-1.30;99.90;;;;;;6169932;23;20173;-86
2021/01/17 04:35:14;;;;;;;24.95;16.92;;;-1.30;99.90;;;;;;6169262;23;20183;-86
2021/01/17 04:37:40;;;;;;;26.50;17.00;;;-1.40;99.90;;;;;;6169420;23;20164;-86
2021/01/17 04:40:07;;;;;;;27.92;16.85;;;-1.30;99.90;;;;;;6170288;23;20405;-86
2021/01/17 04:42:36;;;;;;;30.23;18.67;;;-1.30;99.90;;;;;;6171172;23;20163;-86
2021/01/17 04:45:06;;;;;;;28.60;16.05;;;-1.30;99.90;;;;;;6166172;23;20164;-86
2021/01/17 04:47:34;;;;;;;26.10;15.88;;;-1.30;99.90;;;;;;6168976;23;20199;-86
2021/01/17 04:50:04;;;;;;;29.05;16.80;;;-1.30;99.90;;;;;;6169639;23;20223;-85
2021/01/17 04:52:33;;;;;;;28.67;16.92;;;-1.30;99.90;;;;;;6169418;23;20172;-86
2021/01/17 04:55:00;;;;;;;24.08;14.90;;;-1.30;99.90;;;;;;6169024;23;20576;-86
2021/01/17 04:57:51;;;;;;;23.45;15.25;;;-1.30;99.90;;;;;;6172030;23;20202;-86
2021/01/17 05:00:41;;;;;;;25.67;16.67;;;-1.30;99.90;;;;;;6171221;23;20222;-85
2021/01/17 05:03:56;;;;;;;26.58;14.77;;;-1.20;99.90;;;;;;6170761;23;20521;-86
2021/01/17 05:06:26;;;;;;;26.00;15.73;;;-1.20;99.90;;;;;;6135004;23;20210;-86
2021/01/17 05:09:03;;;;;;;27.58;16.05;;;-1.30;99.90;;;;;;6167567;23;20450;-87
2021/01/17 05:11:34;;;;;;;24.00;14.82;;;-1.30;99.90;;;;;;6169043;23;20170;-86
2021/01/17 05:14:12;;;;;;;24.63;15.55;;;-1.40;99.90;;;;;;6167667;23;20195;-87
2021/01/17 05:16:41;;;;;;;25.10;14.75;;;-1.40;99.90;;;;;;6169201;23;20233;-86
2021/01/17 05:19:14;;;;;;;28.08;16.40;;;-1.40;99.90;;;;;;6168310;23;20171;-86
2021/01/17 05:21:47;;;;;;;24.55;15.32;;;-1.40;99.90;;;;;;6169433;23;20251;-86
2021/01/17 05:24:15;;;;;;;24.75;14.68;;;-1.40;99.90;;;;;;6166257;23;20273;-86
2021/01/17 05:26:50;;;;;;;28.88;15.77;;;-1.30;99.90;;;;;;6165338;23;20259;-86
2021/01/17 05:29:19;;;;;;;26.80;15.77;;;-1.40;99.90;;;;;;6169080;23;20514;-85
2021/01/17 05:31:53;;;;;;;24.23;14.85;;;-1.30;99.90;;;;;;6168851;23;20237;-85
2021/01/17 05:34:19;;;;;;;26.33;16.38;;;-1.40;99.90;;;;;;6168646;23;20169;-86
2021/01/17 05:36:59;;;;;;;25.58;15.45;;;-1.40;99.90;;;;;;6168028;23;20494;-86
2021/01/17 05:39:25;;;;;;;29.35;17.05;;;-1.40;99.90;;;;;;6170551;23;20566;-86
2021/01/17 05:41:51;;;;;;;26.97;15.97;;;-1.40;99.90;;;;;;6169849;23;20255;-86
2021/01/17 05:44:31;;;;;;;26.73;16.03;;;-1.30;99.90;;;;;;6167461;23;20567;-85
2021/01/17 05:47:02;;;;;;;28.48;15.80;;;-1.30;99.90;;;;;;6169092;23;20220;-85
2021/01/17 05:49:28;;;;;;;25.48;15.98;;;-1.30;99.90;;;;;;6169705;23;20167;-85
2021/01/17 05:52:08;;;;;;;30.80;16.10;;;-1.20;99.90;;;;;;6169410;23;20171;-86
2021/01/17 05:54:34;;;;;;;26.35;16.00;;;-1.30;99.90;;;;;;6166926;23;20171;-87
2021/01/17 05:57:00;;;;;;;23.77;14.77;;;-1.20;99.90;;;;;;6166671;23;20538;-87
2021/01/17 05:59:38;;;;;;;22.77;14.27;;;-1.20;99.90;;;;;;6168365;23;20167;-87
2021/01/17 06:02:12;;;;;;;27.50;16.50;;;-1.10;99.90;;;;;;6165695;23;20209;-87
2021/01/17 06:04:41;;;;;;;25.03;14.97;;;-1.20;99.90;;;;;;6168475;23;20780;-86
2021/01/17 06:07:08;;;;;;;24.50;15.07;;;-1.20;99.90;;;;;;6167521;23;20442;-87
2021/01/17 06:09:37;;;;;;;24.83;15.15;;;-1.20;99.90;;;;;;6168376;23;20746;-86
2021/01/17 06:12:04;;;;;;;25.70;16.20;;;-1.10;99.90;;;;;;6167195;23;20709;-87
2021/01/17 06:14:30;;;;;;;27.03;15.73;;;-1.10;99.90;;;;;;6167491;23;20407;-87
2021/01/17 06:17:01;;;;;;;24.00;15.53;;;-1.10;99.90;;;;;;6168923;23;20410;-86
2021/01/17 06:19:38;;;;;;;25.60;15.40;;;-1.00;99.90;;;;;;6169113;23;20806;-87
2021/01/17 06:22:06;;;;;;;22.27;13.90;;;-1.00;99.90;;;;;;6167853;23;20413;-86
2021/01/17 06:24:36;;;;;;;24.23;15.57;;;-1.10;99.90;;;;;;6169063;23;20406;-86
2021/01/17 06:27:03;;;;;;;25.35;15.73;;;-1.10;99.90;;;;;;6169375;23;20438;-87
2021/01/17 06:29:56;;;;;;;22.85;14.50;;;-1.00;99.90;;;;;;6169661;23;20168;-86
2021/01/17 06:32:23;;;;;;;23.85;14.77;;;-1.10;99.90;;;;;;6167106;23;20330;-86
2021/01/17 06:34:54;;;;;;;27.33;15.20;;;-1.10;99.90;;;;;;6167644;23;20187;-86
2021/01/17 06:37:22;;;;;;;25.65;15.57;;;-1.10;99.90;;;;;;6169463;23;20470;-86
2021/01/17 06:39:49;;;;;;;28.48;15.68;;;-1.20;99.90;;;;;;6168970;23;20192;-86
2021/01/17 06:42:17;;;;;;;28.33;16.70;;;-1.20;99.90;;;;;;6168826;23;20402;-88
2021/01/17 06:44:43;;;;;;;25.45;16.00;;;-1.20;99.90;;;;;;6167632;23;20164;-87
2021/01/17 06:47:21;;;;;;;24.65;16.63;;;-1.20;99.90;;;;;;6169920;23;20199;-86
2021/01/17 06:49:48;;;;;;;27.23;16.23;;;-1.10;99.90;;;;;;6169669;23;20171;-86
2021/01/17 06:52:17;;;;;;;30.80;18.43;;;-1.10;99.90;;;;;;6168132;23;20175;-86
2021/01/17 06:54:51;;;;;;;28.60;16.50;;;-1.10;99.90;;;;;;6170850;23;20399;-86
2021/01/17 06:57:18;;;;;;;29.27;17.20;;;-1.00;99.90;;;;;;6168591;23;20493;-86
2021/01/17 06:59:45;;;;;;;25.40;16.08;;;-1.00;99.90;;;;;;6170404;23;20601;-87
2021/01/17 07:02:14;;;;;;;29.05;16.83;;;-1.00;99.90;;;;;;6170141;23;20327;-85
2021/01/17 07:04:53;;;;;;;26.37;15.80;;;-1.10;99.90;;;;;;6169854;23;20541;-87
2021/01/17 07:07:44;;;;;;;27.08;15.93;;;-1.10;99.90;;;;;;6169328;23;20755;-87
2021/01/17 07:10:12;;;;;;;29.33;17.05;;;-1.00;99.90;;;;;;6171148;23;20191;-87
2021/01/17 07:12:58;;;;;;;27.02;17.35;;;-1.00;99.90;;;;;;6170484;23;20265;-87
2021/01/17 07:15:26;;;;;;;29.63;16.65;;;-0.90;99.90;;;;;;6170050;23;20226;-87
2021/01/17 07:18:00;;;;;;;25.38;16.45;;;-1.00;99.90;;;;;;6168870;23;20178;-85
2021/01/17 07:20:32;;;;;;;28.30;18.00;;;-1.00;99.90;;;;;;6171865;23;20167;-85
2021/01/17 07:22:59;;;;;;;32.47;18.17;;;-0.90;99.90;;;;;;6168637;23;20598;-88
2021/01/17 07:25:26;;;;;;;30.15;17.85;;;-0.90;99.90;;;;;;6167059;23;20168;-87
2021/01/17 07:27:52;;;;;;;28.10;17.67;;;-0.80;99.90;;;;;;6171764;23;20241;-86
2021/01/17 07:30:32;;;;;;;29.03;17.63;;;-0.80;99.90;;;;;;6169135;23;20988;-87
2021/01/17 07:33:03;;;;;;;26.90;15.98;;;-0.90;99.90;;;;;;6168118;23;20163;-87
2021/01/17 07:35:38;;;;;;;27.33;17.00;;;-0.80;99.90;;;;;;6167976;23;20233;-87
2021/01/17 07:38:11;;;;;;;26.73;17.23;;;-0.80;99.90;;;;;;6169923;23;20326;-89
2021/01/17 07:40:53;;;;;;;25.17;15.10;;;-0.80;99.90;;;;;;6169201;23;20374;-88
2021/01/17 07:43:27;;;;;;;28.73;17.43;;;-0.70;99.90;;;;;;6168993;23;20407;-89
2021/01/17 07:46:01;;;;;;;24.30;16.63;;;-0.70;99.90;;;;;;6164563;23;20393;-92
2021/01/17 07:48:27;;;;;;;28.80;16.73;;;-0.70;99.90;;;;;;6166847;23;20640;-88
2021/01/17 07:50:56;;;;;;;28.70;17.90;;;-0.60;99.90;;;;;;6168595;23;20960;-86
2021/01/17 07:53:39;;;;;;;28.57;17.57;;;-0.60;99.90;;;;;;6169621;23;20406;-89
2021/01/17 07:56:15;;;;;;;27.17;17.30;;;-0.60;99.90;;;;;;6167642;23;20409;-89
2021/01/17 07:58:43;;;;;;;29.43;16.97;;;-0.60;99.90;;;;;;6168752;23;20416;-89
2021/01/17 08:01:30;;;;;;;30.33;18.57;;;-0.50;99.90;;;;;;6168869;23;20885;-91
2021/01/17 08:04:05;;;;;;;30.40;18.23;;;-0.40;99.90;;;;;;6168901;23;20457;-86
2021/01/17 08:06:36;;;;;;;27.73;17.27;;;-0.30;99.90;;;;;;6168195;23;20448;-85
2021/01/17 08:09:12;;;;;;;25.87;17.27;;;-0.20;99.90;;;;;;6167824;23;20870;-85
2021/01/17 08:11:45;;;;;;;23.90;15.87;;;-0.10;99.90;;;;;;6168409;23;20398;-87
2021/01/17 08:14:27;;;;;;;26.67;16.53;;;0.00;99.90;;;;;;6164590;23;20398;-85
2021/01/17 08:17:14;;;;;;;26.70;16.60;;;0.10;99.90;;;;;;6168598;23;20439;-85
2021/01/17 08:19:52;;;;;;;26.17;17.43;;;0.20;99.90;;;;;;6168599;23;20399;-88
2021/01/17 08:22:18;;;;;;;25.00;16.60;;;0.10;99.90;;;;;;6169151;23;20410;-85
2021/01/17 08:24:47;;;;;;;26.97;18.37;;;0.20;99.90;;;;;;6193267;23;20729;-83
2021/01/17 08:27:31;;;;;;;31.17;19.57;;;0.20;99.90;;;;;;6166874;23;20227;-81
2021/01/17 08:30:03;;;;;;;28.20;17.70;;;0.20;99.90;;;;;;6165754;23;20406;-81
2021/01/17 08:32:44;;;;;;;29.83;19.47;;;0.20;99.90;;;;;;6165107;23;20406;-82
2021/01/17 08:35:24;;;;;;;27.77;18.13;;;0.30;99.90;;;;;;6165568;23;20410;-85
2021/01/17 08:37:57;;;;;;;27.33;16.97;;;0.30;99.90;;;;;;6166272;23;20430;-83
2021/01/17 08:40:29;;;;;;;23.30;16.40;;;0.40;99.90;;;;;;6166400;23;20398;-82
2021/01/17 08:43:08;;;;;;;27.47;17.97;;;0.60;99.90;;;;;;6165317;23;20406;-83
2021/01/17 08:45:39;;;;;;;27.07;18.00;;;0.80;99.90;;;;;;6167155;23;20387;-83
2021/01/17 08:48:17;;;;;;;27.77;18.40;;;0.90;99.90;;;;;;6167929;23;20529;-83
2021/01/17 08:50:47;;;;;;;25.53;18.23;;;1.00;99.90;;;;;;6170663;23;20394;-82
2021/01/17 08:53:16;;;;;;;24.80;17.50;;;1.00;99.90;;;;;;6169316;23;20399;-82
2021/01/17 08:55:49;;;;;;;27.87;19.83;;;1.00;99.90;;;;;;6168662;23;20394;-82
2021/01/17 08:58:35;;;;;;;24.17;15.90;;;1.10;99.90;;;;;;6167998;23;20945;-82
2021/01/17 09:01:04;;;;;;;19.57;15.17;;;1.10;99.90;;;;;;6154384;23;20394;-82
2021/01/17 09:03:41;;;;;;;22.67;15.63;;;1.10;99.90;;;;;;6168584;23;20458;-81
2021/01/17 09:06:13;;;;;;;26.53;17.83;;;1.20;99.90;;;;;;6168601;23;20402;-81
2021/01/17 09:08:48;;;;;;;27.53;16.93;;;0.90;99.90;;;;;;6169277;23;20620;-81
2021/01/17 09:11:33;;;;;;;27.73;19.07;;;1.00;99.90;;;;;;6168726;23;20414;-80
2021/01/17 09:14:17;;;;;;;73.63;54.23;;;1.00;99.90;;;;;;6170547;23;20448;-79
2021/01/17 09:16:50;;;;;;;29.00;19.10;;;1.00;99.90;;;;;;6192866;23;20482;-82
2021/01/17 09:19:25;;;;;;;25.93;16.43;;;0.90;99.90;;;;;;6169864;23;20410;-83
2021/01/17 09:21:56;;;;;;;28.27;17.80;;;0.90;99.90;;;;;;6165917;23;20395;-83
2021/01/17 09:24:24;;;;;;;28.90;18.13;;;1.00;99.90;;;;;;6167560;23;20481;-86
2021/01/17 09:26:51;;;;;;;30.60;20.00;;;1.00;99.90;;;;;;6167329;23;20472;-86
2021/01/17 09:29:26;;;;;;;28.87;18.70;;;1.10;99.90;;;;;;6169916;23;20395;-84
2021/01/17 09:31:57;;;;;;;29.27;18.57;;;1.20;99.90;;;;;;6170507;23;21355;-85
2021/01/17 09:34:25;;;;;;;34.37;19.57;;;1.30;99.90;;;;;;6170022;23;20865;-87
2021/01/17 09:36:59;;;;;;;31.40;18.93;;;1.30;99.90;;;;;;6172245;23;20410;-88
2021/01/17 09:39:36;;;;;;;28.60;19.17;;;1.50;99.90;;;;;;6172008;23;20399;-85
2021/01/17 09:42:03;;;;;;;28.50;19.90;;;1.70;99.90;;;;;;6171562;23;20391;-87
2021/01/17 09:44:31;;;;;;;33.03;19.30;;;1.70;99.90;;;;;;6171948;23;20409;-86
2021/01/17 09:46:58;;;;;;;27.40;17.53;;;1.80;99.90;;;;;;6171976;23;20890;-88
2021/01/17 09:49:26;;;;;;;28.63;18.23;;;1.80;99.90;;;;;;6171990;23;20747;-86
2021/01/17 09:51:52;;;;;;;27.10;19.57;;;2.00;99.90;;;;;;6171591;23;20398;-87
2021/01/17 09:54:18;;;;;;;25.60;17.77;;;2.00;99.90;;;;;;6170153;23;20813;-87
2021/01/17 09:56:45;;;;;;;27.30;18.00;;;2.00;99.90;;;;;;6169849;23;20480;-86
2021/01/17 09:59:13;;;;;;;30.23;19.60;;;2.20;99.90;;;;;;6171465;23;20737;-88
2021/01/17 10:01:40;;;;;;;26.43;18.77;;;2.10;99.90;;;;;;6171621;23;20398;-87
2021/01/17 10:04:05;;;;;;;27.70;19.27;;;2.20;99.90;;;;;;6168180;23;20920;-86
2021/01/17 10:06:34;;;;;;;30.57;20.40;;;2.10;99.90;;;;;;6169224;23;20448;-88
2021/01/17 10:09:00;;;;;;;32.73;22.33;;;2.20;99.90;;;;;;6170311;23;20238;-87
2021/01/17 10:11:26;;;;;;;25.20;18.97;;;2.30;99.90;;;;;;6171319;23;20749;-86
2021/01/17 10:13:52;;;;;;;27.00;19.43;;;2.20;99.90;;;;;;6167056;23;20789;-88
2021/01/17 10:16:24;;;;;;;23.83;17.10;;;2.20;99.90;;;;;;6169600;23;20433;-86
2021/01/17 10:18:50;;;;;;;25.53;17.77;;;2.30;99.90;;;;;;6171910;23;20683;-86
2021/01/17 10:21:18;;;;;;;25.87;17.00;;;2.30;99.90;;;;;;6171797;23;20395;-86
2021/01/17 10:23:43;;;;;;;24.83;18.13;;;2.30;99.90;;;;;;6167960;23;20406;-87
2021/01/17 10:26:12;;;;;;;26.00;17.40;;;2.30;99.90;;;;;;6170826;23;20406;-86
2021/01/17 10:28:38;;;;;;;27.83;19.63;;;2.10;99.90;;;;;;6170155;23;20195;-86
2021/01/17 10:31:03;;;;;;;67.17;41.93;;;2.10;99.90;;;;;;6169945;23;20413;-85
2021/01/17 10:33:31;;;;;;;28.30;19.40;;;2.20;99.90;;;;;;6169168;23;20402;-87
2021/01/17 10:35:56;;;;;;;27.53;18.90;;;2.30;99.90;;;;;;6169802;23;20261;-86
2021/01/17 10:38:22;;;;;;;26.83;19.20;;;2.50;99.90;;;;;;6169470;23;21087;-87
2021/01/17 10:40:49;;;;;;;30.53;20.00;;;2.50;99.90;;;;;;6170561;23;20283;-88
2021/01/17 10:43:32;;;;;;;23.77;18.43;;;2.20;99.90;;;;;;6167434;23;20411;-87
2021/01/17 10:46:10;;;;;;;29.40;20.03;;;2.10;99.90;;;;;;6169875;23;20886;-87
2021/01/17 10:48:46;;;;;;;29.43;19.47;;;2.20;99.90;;;;;;6170623;23;20762;-87
2021/01/17 10:51:19;;;;;;;28.80;18.90;;;2.30;99.90;;;;;;6170395;23;20391;-87
2021/01/17 10:53:49;;;;;;;31.73;21.57;;;2.40;99.90;;;;;;6169914;23;20398;-88
2021/01/17 10:56:20;;;;;;;36.63;27.87;;;2.40;99.90;;;;;;6170975;23;20455;-88
2021/01/17 10:58:48;;;;;;;31.20;22.10;;;2.30;99.90;;;;;;6168836;23;20478;-88
2021/01/17 11:01:13;;;;;;;34.17;21.97;;;2.20;99.90;;;;;;6171491;23;20764;-87
2021/01/17 11:03:45;;;;;;;30.97;22.70;;;2.30;99.90;;;;;;6176591;23;20497;-87
2021/01/17 11:06:14;;;;;;;31.07;22.00;;;2.30;99.90;;;;;;6168332;23;20731;-90
2021/01/17 11:08:47;;;;;;;36.03;23.33;;;2.40;99.90;;;;;;6172950;23;20970;-89
2021/01/17 11:11:14;;;;;;;41.17;27.00;;;2.60;99.90;;;;;;6170452;23;20472;-88
2021/01/17 11:13:41;;;;;;;38.57;27.90;;;2.90;99.90;;;;;;6167694;23;20785;-89
2021/01/17 11:16:07;;;;;;;32.77;21.47;;;3.00;99.90;;;;;;6169538;23;20392;-87
2021/01/17 11:18:35;;;;;;;29.57;20.10;;;3.00;99.90;;;;;;6170904;23;20714;-89
2021/01/17 11:21:02;;;;;;;32.50;23.10;;;3.10;99.90;;;;;;6171994;23;20876;-90
2021/01/17 11:23:31;;;;;;;30.17;20.33;;;3.10;99.90;;;;;;6194828;23;20441;-90
2021/01/17 11:26:02;;;;;;;26.47;19.03;;;3.10;99.90;;;;;;6169389;23;20407;-89
2021/01/17 11:28:29;;;;;;;27.87;19.47;;;3.00;99.90;;;;;;6172747;23;20481;-89
2021/01/17 11:30:57;;;;;;;30.47;20.20;;;3.10;99.90;;;;;;6170915;23;20401;-89
2021/01/17 11:33:30;;;;;;;28.23;20.57;;;3.00;99.90;;;;;;6170729;23;20482;-91
2021/01/17 11:36:01;;;;;;;27.07;19.03;;;3.10;99.90;;;;;;6172782;23;20410;-91
2021/01/17 11:38:53;;;;;;;27.10;18.47;;;3.20;99.90;;;;;;6171106;23;20431;-90
2021/01/17 11:41:22;;;;;;;26.73;18.90;;;3.30;99.90;;;;;;6171834;23;20400;-90
2021/01/17 11:43:49;;;;;;;24.00;17.30;;;3.20;99.90;;;;;;6172712;23;20433;-89
2021/01/17 11:46:16;;;;;;;23.00;17.27;;;3.30;99.90;;;;;;6173221;23;20410;-88
2021/01/17 11:48:43;;;;;;;25.37;15.83;;;3.40;99.90;;;;;;6173339;23;20447;-90
2021/01/17 11:51:10;;;;;;;23.47;16.10;;;3.30;99.90;;;;;;6171103;23;20394;-89
2021/01/17 11:53:37;;;;;;;24.53;17.43;;;3.00;99.90;;;;;;6171383;23;20487;-90
2021/01/17 11:56:03;;;;;;;22.97;15.67;;;3.00;99.90;;;;;;6172959;23;20592;-89
2021/01/17 11:58:38;;;;;;;24.17;16.63;;;3.00;99.90;;;;;;6170073;23;20896;-89
2021/01/17 12:01:04;;;;;;;22.40;15.20;;;3.00;99.90;;;;;;6172777;23;20384;-89
2021/01/17 12:03:31;;;;;;;21.80;15.70;;;3.20;99.90;;;;;;6172247;23;20833;-90
2021/01/17 12:06:16;;;;;;;24.20;16.83;;;3.10;99.90;;;;;;6171389;23;20387;-90
2021/01/17 12:08:52;;;;;;;25.80;16.87;;;2.80;99.90;;;;;;6172662;23;20449;-89
2021/01/17 12:11:40;;;;;;;25.40;18.00;;;2.70;99.90;;;;;;6172030;23;20404;-89
2021/01/17 12:14:15;;;;;;;27.43;17.23;;;2.70;99.90;;;;;;6170713;23;20391;-90
2021/01/17 12:16:52;;;;;;;25.37;16.90;;;2.80;99.90;;;;;;6171693;23;20430;-91
2021/01/17 12:19:27;;;;;;;26.57;19.47;;;2.80;99.90;;;;;;6200352;23;20415;-90
2021/01/17 12:21:55;;;;;;;26.50;19.77;;;2.60;99.90;;;;;;6172275;23;20395;-88
2021/01/17 12:24:21;;;;;;;20.40;17.50;;;2.60;99.90;;;;;;6173319;23;20430;-89
2021/01/17 12:26:47;;;;;;;26.50;18.20;;;2.60;99.90;;;;;;6173439;23;20921;-89
2021/01/17 12:29:13;;;;;;;26.43;18.27;;;2.60;99.90;;;;;;6172212;23;20977;-90
2021/01/17 12:31:40;;;;;;;27.30;20.00;;;2.60;99.90;;;;;;6173447;23;20393;-91
2021/01/17 12:34:07;;;;;;;27.13;18.87;;;2.60;99.90;;;;;;6174181;23;20406;-90
2021/01/17 12:36:33;;;;;;;25.50;18.57;;;2.60;99.90;;;;;;6173798;23;20443;-91
2021/01/17 12:39:01;;;;;;;29.07;19.13;;;2.70;99.90;;;;;;6174254;23;20463;-90
2021/01/17 12:41:29;;;;;;;23.47;17.33;;;2.70;99.90;;;;;;6172139;23;20410;-92
2021/01/17 12:43:56;;;;;;;25.00;19.03;;;2.70;99.90;;;;;;6172497;23;20892;-91
2021/01/17 12:46:22;;;;;;;23.83;18.00;;;2.60;99.90;;;;;;6175584;23;20390;-87